Time;durP1;ratioP1;P1;durP2;ratioP2;P2;SDS_P1;SDS_P2;PMS_P1;PMS_P2;Temp;Humidity;BMP_temperature;BMP_pressure;BME280_temperature;BME280_humidity;BME280_pressure;Samples;Min_cycle;Max_cycle;Signal;HPM_P1;HPM_P2
2023/08/28 00:00:46;;;;;;;2.35;0.90;;;17.50;99.90;;;;;;4953405;29;20114;-87
2023/08/28 00:03:15;;;;;;;2.80;1.33;;;17.50;99.90;;;;;;4953591;28;20035;-87
2023/08/28 00:05:41;;;;;;;4.13;1.23;;;17.50;99.90;;;;;;4953778;29;20035;-89
2023/08/28 00:08:07;;;;;;;2.83;1.00;;;17.40;99.90;;;;;;4953790;29;20024;-86
2023/08/28 00:10:35;;;;;;;2.17;0.95;;;17.50;99.90;;;;;;4915703;29;20496;-85
2023/08/28 00:13:00;;;;;;;2.30;1.10;;;17.50;99.90;;;;;;4917405;29;20473;-87
2023/08/28 00:15:26;;;;;;;1.65;1.10;;;17.50;99.90;;;;;;4934594;29;20087;-88
2023/08/28 00:17:52;;;;;;;2.90;1.23;;;17.50;99.90;;;;;;4933641;29;20059;-87
2023/08/28 00:20:18;;;;;;;3.65;1.15;;;17.50;99.90;;;;;;4934054;29;20555;-88
2023/08/28 00:22:43;;;;;;;2.00;1.08;;;17.50;99.90;;;;;;4933720;29;20032;-88
2023/08/28 00:25:09;;;;;;;2.30;1.10;;;17.40;99.90;;;;;;4934915;29;20082;-87
2023/08/28 00:27:35;;;;;;;4.47;1.20;;;17.50;99.90;;;;;;4937154;29;20073;-87
2023/08/28 00:30:03;;;;;;;3.08;1.10;;;17.50;99.90;;;;;;4937317;29;20039;-87
2023/08/28 00:32:29;;;;;;;4.45;1.27;;;17.50;99.90;;;;;;4937834;29;20134;-87
2023/08/28 00:34:54;;;;;;;3.08;1.50;;;17.40;99.90;;;;;;4937179;29;20118;-87
2023/08/28 00:37:20;;;;;;;3.67;1.70;;;17.40;99.90;;;;;;4937363;29;20622;-86
2023/08/28 00:39:46;;;;;;;2.00;1.15;;;17.50;99.90;;;;;;4937372;29;20044;-88
2023/08/28 00:42:12;;;;;;;1.50;1.30;;;17.40;99.90;;;;;;4971620;28;20472;-87
2023/08/28 00:44:37;;;;;;;2.25;1.00;;;17.40;99.90;;;;;;4996559;28;20033;-87
2023/08/28 00:47:05;;;;;;;2.15;1.20;;;17.30;99.90;;;;;;4995498;28;20055;-87
2023/08/28 00:49:31;;;;;;;2.55;1.20;;;17.30;99.90;;;;;;4995811;28;20030;-87
2023/08/28 00:51:57;;;;;;;4.07;1.42;;;17.20;99.90;;;;;;4995323;28;20387;-87
2023/08/28 00:54:23;;;;;;;5.53;1.20;;;17.20;99.90;;;;;;4996318;28;20503;-87
2023/08/28 00:56:49;;;;;;;5.25;1.50;;;17.20;99.90;;;;;;4997070;28;20066;-88
2023/08/28 00:59:16;;;;;;;2.80;1.40;;;17.20;99.90;;;;;;4996366;28;20121;-87
2023/08/28 01:01:42;;;;;;;3.17;1.20;;;17.20;99.90;;;;;;4996055;28;20034;-91
2023/08/28 01:04:08;;;;;;;1.80;1.33;;;17.20;99.90;;;;;;4995941;28;20387;-85
2023/08/28 01:07:01;;;;;;;3.97;1.40;;;17.10;99.90;;;;;;4997200;28;20050;-85
2023/08/28 01:09:52;;;;;;;3.75;1.10;;;17.20;99.90;;;;;;4979835;28;20039;-85
2023/08/28 01:12:30;;;;;;;3.85;1.30;;;17.20;99.90;;;;;;4995949;28;20034;-87
2023/08/28 01:15:09;;;;;;;1.88;1.20;;;17.20;99.90;;;;;;4979273;28;20033;-87
2023/08/28 01:17:37;;;;;;;1.83;1.10;;;17.20;99.90;;;;;;4979732;28;20120;-87
2023/08/28 01:20:04;;;;;;;2.42;1.10;;;17.20;99.90;;;;;;4995453;28;20233;-87
2023/08/28 01:22:51;;;;;;;2.03;1.10;;;17.20;99.90;;;;;;4995847;28;20426;-87
2023/08/28 01:25:18;;;;;;;3.13;1.23;;;17.30;99.90;;;;;;4996055;28;20026;-87
2023/08/28 01:27:44;;;;;;;1.73;1.20;;;17.30;99.90;;;;;;4995523;28;20123;-89
2023/08/28 01:30:14;;;;;;;3.00;1.42;;;17.30;99.90;;;;;;4996566;28;20034;-86
2023/08/28 01:32:41;;;;;;;5.90;1.20;;;17.40;99.90;;;;;;4995437;28;20034;-86
2023/08/28 01:35:09;;;;;;;1.70;1.40;;;17.30;99.90;;;;;;4995272;28;20039;-87
2023/08/28 01:37:43;;;;;;;2.40;1.42;;;17.30;99.90;;;;;;4978983;28;20030;-87
2023/08/28 01:40:12;;;;;;;1.70;1.20;;;17.30;99.90;;;;;;4994970;28;20149;-87
2023/08/28 01:42:39;;;;;;;2.42;1.70;;;17.30;99.90;;;;;;4996566;28;20074;-85
2023/08/28 01:45:06;;;;;;;2.90;1.33;;;17.30;99.90;;;;;;4994844;28;20047;-85
2023/08/28 01:47:32;;;;;;;4.28;1.33;;;17.20;99.90;;;;;;4995144;28;20030;-85
2023/08/28 01:49:58;;;;;;;2.47;1.30;;;17.20;99.90;;;;;;4994704;28;20038;-85
2023/08/28 01:52:23;;;;;;;4.10;1.40;;;17.20;99.90;;;;;;4995364;28;20173;-85
2023/08/28 01:54:49;;;;;;;2.40;1.35;;;17.20;99.90;;;;;;4994739;28;20066;-87
2023/08/28 01:57:15;;;;;;;2.33;1.20;;;17.20;99.90;;;;;;4995406;28;20030;-86
2023/08/28 01:59:40;;;;;;;3.35;1.50;;;17.20;99.90;;;;;;4994907;28;20080;-87
2023/08/28 02:02:06;;;;;;;2.92;1.60;;;17.20;99.90;;;;;;4995287;28;20033;-86
2023/08/28 02:04:31;;;;;;;4.03;1.60;;;17.30;99.90;;;;;;4995840;28;20085;-86
2023/08/28 02:06:57;;;;;;;4.10;1.38;;;17.10;99.90;;;;;;4994900;28;20041;-86
2023/08/28 02:09:22;;;;;;;3.80;1.55;;;17.20;99.90;;;;;;4995610;28;20034;-86
2023/08/28 02:11:49;;;;;;;2.53;1.30;;;17.20;99.90;;;;;;4995773;28;20084;-88
2023/08/28 02:14:15;;;;;;;3.30;1.30;;;17.30;99.90;;;;;;4995472;28;20036;-86
2023/08/28 02:16:40;;;;;;;8.80;1.98;;;17.30;99.90;;;;;;4994595;28;20026;-86
2023/08/28 02:19:06;;;;;;;3.45;1.30;;;17.30;99.90;;;;;;4994110;28;20197;-86
2023/08/28 02:21:31;;;;;;;3.85;1.50;;;17.30;99.90;;;;;;4994760;28;20423;-86
2023/08/28 02:23:57;;;;;;;2.70;1.70;;;17.10;99.90;;;;;;4994025;28;20080;-86
2023/08/28 02:26:24;;;;;;;2.03;1.73;;;17.10;99.90;;;;;;4995605;28;20022;-86
2023/08/28 02:28:50;;;;;;;3.97;1.38;;;17.20;99.90;;;;;;4994046;28;20030;-90
2023/08/28 02:31:15;;;;;;;3.75;1.60;;;17.10;99.90;;;;;;4994539;28;20092;-85
2023/08/28 02:33:41;;;;;;;1.90;1.30;;;17.20;99.90;;;;;;4994199;28;20030;-86
2023/08/28 02:36:07;;;;;;;3.30;1.48;;;17.10;99.90;;;;;;4995041;28;20029;-86
2023/08/28 02:38:33;;;;;;;2.85;1.35;;;17.10;99.90;;;;;;4994292;28;20038;-86
2023/08/28 02:41:07;;;;;;;2.45;1.20;;;17.10;99.90;;;;;;4993995;28;20053;-86
2023/08/28 02:43:33;;;;;;;2.55;1.73;;;17.10;99.90;;;;;;4994508;28;20389;-86
2023/08/28 02:46:00;;;;;;;2.97;1.50;;;17.10;99.90;;;;;;4993778;28;20050;-85
2023/08/28 02:48:26;;;;;;;1.70;1.20;;;17.10;99.90;;;;;;4994025;28;20034;-86
2023/08/28 02:50:51;;;;;;;3.22;1.35;;;17.10;99.90;;;;;;4993324;28;20093;-89
2023/08/28 02:53:17;;;;;;;4.07;1.90;;;17.00;99.90;;;;;;4994044;28;20119;-86
2023/08/28 02:56:03;;;;;;;7.28;3.10;;;17.00;99.90;;;;;;4994082;28;20027;-85
2023/08/28 02:58:29;;;;;;;2.22;1.75;;;16.90;99.90;;;;;;4993366;28;20027;-86
2023/08/28 03:00:54;;;;;;;2.85;1.30;;;16.80;99.90;;;;;;4993447;28;20030;-86
2023/08/28 03:03:20;;;;;;;2.40;1.23;;;16.80;99.90;;;;;;4995031;28;20031;-85
2023/08/28 03:05:48;;;;;;;3.00;1.52;;;16.90;99.90;;;;;;4994143;28;20022;-85
2023/08/28 03:08:14;;;;;;;4.18;2.25;;;16.80;99.90;;;;;;4993742;28;20499;-86
2023/08/28 03:10:39;;;;;;;3.38;2.08;;;16.80;99.90;;;;;;4994137;28;20026;-86
2023/08/28 03:13:05;;;;;;;4.00;1.77;;;16.80;99.90;;;;;;4993330;28;20177;-87
2023/08/28 03:15:31;;;;;;;2.25;1.10;;;16.80;99.90;;;;;;4993405;28;20026;-86
2023/08/28 03:17:57;;;;;;;1.90;1.10;;;16.80;99.90;;;;;;4993246;28;20027;-87
2023/08/28 03:20:23;;;;;;;3.17;1.20;;;16.80;99.90;;;;;;4994864;28;20487;-86
2023/08/28 03:22:48;;;;;;;3.40;1.35;;;16.80;99.90;;;;;;4993999;28;20040;-86
2023/08/28 03:25:14;;;;;;;2.03;1.20;;;16.90;99.90;;;;;;4993435;28;20030;-87
2023/08/28 03:27:39;;;;;;;2.65;1.20;;;16.80;99.90;;;;;;4993799;28;20031;-86
2023/08/28 03:30:06;;;;;;;3.00;1.20;;;16.80;99.90;;;;;;4994503;28;20105;-86
2023/08/28 03:32:32;;;;;;;3.35;1.00;;;16.80;99.90;;;;;;4993358;28;20034;-86
2023/08/28 03:34:58;;;;;;;3.38;1.30;;;16.90;99.90;;;;;;4994400;28;20030;-87
2023/08/28 03:37:23;;;;;;;2.78;1.30;;;16.90;99.90;;;;;;4994550;28;20031;-86
2023/08/28 03:39:49;;;;;;;1.38;0.93;;;16.90;99.90;;;;;;4993520;28;20134;-85
2023/08/28 03:42:14;;;;;;;6.07;1.40;;;16.80;99.90;;;;;;4993036;28;20104;-85
2023/08/28 03:44:40;;;;;;;2.42;1.20;;;16.80;99.90;;;;;;4993724;28;20029;-86
2023/08/28 03:47:06;;;;;;;3.30;0.90;;;16.70;99.90;;;;;;4994064;28;20129;-86
2023/08/28 03:49:31;;;;;;;2.45;0.95;;;16.70;99.90;;;;;;4994676;28;20037;-85
2023/08/28 03:51:59;;;;;;;1.90;0.90;;;16.60;99.90;;;;;;4992953;28;20058;-86
2023/08/28 03:54:25;;;;;;;4.47;0.98;;;16.60;99.90;;;;;;4993790;28;20034;-85
2023/08/28 03:56:51;;;;;;;1.67;1.10;;;16.60;99.90;;;;;;4993253;28;20031;-87
2023/08/28 03:59:16;;;;;;;2.10;1.02;;;16.60;99.90;;;;;;4992521;28;20387;-85
2023/08/28 04:01:43;;;;;;;1.33;0.90;;;16.50;99.90;;;;;;4994603;28;20034;-85
2023/08/28 04:04:08;;;;;;;3.17;0.90;;;16.50;99.90;;;;;;4996114;28;20037;-86
2023/08/28 04:06:34;;;;;;;1.85;1.50;;;16.40;99.90;;;;;;4996901;28;20035;-86
2023/08/28 04:08:59;;;;;;;2.20;1.20;;;16.40;99.90;;;;;;4997822;28;20034;-86
2023/08/28 04:11:25;;;;;;;2.00;1.02;;;16.40;99.90;;;;;;4997029;28;20038;-85
2023/08/28 04:13:51;;;;;;;1.75;1.25;;;16.40;99.90;;;;;;4997118;28;20030;-85
2023/08/28 04:16:20;;;;;;;2.25;1.00;;;16.40;99.90;;;;;;4996854;28;20029;-86
2023/08/28 04:18:45;;;;;;;1.30;1.10;;;16.50;99.90;;;;;;4996921;28;20037;-85
2023/08/28 04:21:11;;;;;;;4.90;1.13;;;16.50;99.90;;;;;;4996487;28;20034;-89
2023/08/28 04:23:36;;;;;;;3.03;1.15;;;16.50;99.90;;;;;;4996842;28;20049;-88
2023/08/28 04:26:02;;;;;;;2.45;1.02;;;16.50;99.90;;;;;;4996351;28;20137;-89
2023/08/28 04:28:29;;;;;;;3.90;1.15;;;16.50;99.90;;;;;;4997017;28;20464;-88
2023/08/28 04:30:55;;;;;;;5.65;1.48;;;16.50;99.90;;;;;;4996674;28;20035;-90
2023/08/28 04:33:20;;;;;;;2.30;0.95;;;16.60;99.90;;;;;;4996596;28;20034;-89
2023/08/28 04:35:46;;;;;;;3.53;1.27;;;16.60;99.90;;;;;;4996598;28;20030;-89
2023/08/28 04:38:12;;;;;;;4.20;1.35;;;16.60;99.90;;;;;;4995940;28;20031;-88
2023/08/28 04:40:37;;;;;;;3.97;1.35;;;16.50;99.90;;;;;;4997558;28;20026;-86
2023/08/28 04:43:03;;;;;;;1.90;1.15;;;16.50;99.90;;;;;;4995734;28;20034;-86
2023/08/28 04:45:29;;;;;;;3.80;1.42;;;16.60;99.90;;;;;;4996984;28;20472;-85
2023/08/28 04:47:54;;;;;;;2.42;1.40;;;16.60;99.90;;;;;;4997243;28;20030;-89
2023/08/28 04:50:20;;;;;;;1.63;1.10;;;16.50;99.90;;;;;;4996880;28;20023;-87
2023/08/28 04:52:45;;;;;;;2.65;1.40;;;16.60;99.90;;;;;;4996253;28;20441;-86
2023/08/28 04:55:11;;;;;;;2.97;1.42;;;16.50;99.90;;;;;;4996313;28;20081;-86
2023/08/28 04:57:36;;;;;;;2.28;1.48;;;16.50;99.90;;;;;;4996855;28;20026;-86
2023/08/28 05:00:03;;;;;;;5.20;1.88;;;16.50;99.90;;;;;;4995716;28;20045;-86
2023/08/28 05:02:28;;;;;;;4.20;2.13;;;16.50;99.90;;;;;;4996039;28;20034;-86
2023/08/28 05:04:54;;;;;;;5.75;2.05;;;16.50;99.90;;;;;;4996164;28;20023;-85
2023/08/28 05:07:19;;;;;;;4.13;1.88;;;16.50;99.90;;;;;;4995517;28;20026;-86
2023/08/28 05:09:45;;;;;;;2.08;1.40;;;16.60;99.90;;;;;;4995863;28;20419;-86
2023/08/28 05:12:10;;;;;;;2.10;1.45;;;16.60;99.90;;;;;;4995729;28;20026;-86
2023/08/28 05:14:36;;;;;;;3.92;1.50;;;16.60;99.90;;;;;;4995730;28;20460;-86
2023/08/28 05:17:01;;;;;;;3.03;1.50;;;16.60;99.90;;;;;;4995076;28;20045;-86
2023/08/28 05:19:27;;;;;;;2.92;1.45;;;16.60;99.90;;;;;;4995742;28;20022;-85
2023/08/28 05:21:53;;;;;;;3.58;1.70;;;16.50;99.90;;;;;;5014196;28;20029;-85
2023/08/28 05:24:18;;;;;;;3.47;1.45;;;16.50;99.90;;;;;;4998507;28;20454;-85
2023/08/28 05:26:44;;;;;;;3.28;1.45;;;16.40;99.90;;;;;;4998907;28;20026;-86
2023/08/28 05:29:09;;;;;;;2.80;1.35;;;16.50;99.90;;;;;;4998622;28;20026;-85
2023/08/28 05:31:35;;;;;;;4.07;1.63;;;16.40;99.90;;;;;;4998717;28;20041;-86
2023/08/28 05:34:00;;;;;;;4.57;1.40;;;16.50;99.90;;;;;;4998795;28;20438;-88
2023/08/28 05:36:26;;;;;;;1.65;1.55;;;16.60;99.90;;;;;;4998530;28;20022;-85
2023/08/28 05:38:51;;;;;;;1.98;1.45;;;16.60;99.90;;;;;;4998662;28;20030;-86
2023/08/28 05:41:17;;;;;;;1.85;1.38;;;16.60;99.90;;;;;;5015380;28;20041;-85
2023/08/28 05:43:43;;;;;;;3.47;1.30;;;16.60;99.90;;;;;;4998437;28;20026;-86
2023/08/28 05:46:08;;;;;;;3.42;1.70;;;16.60;99.90;;;;;;4997607;28;20061;-86
2023/08/28 05:48:34;;;;;;;2.85;1.65;;;16.70;99.90;;;;;;5015728;28;20030;-86
2023/08/28 05:50:59;;;;;;;3.40;1.50;;;16.60;99.90;;;;;;5015207;28;20028;-90
2023/08/28 05:53:25;;;;;;;4.50;1.90;;;16.60;99.90;;;;;;4998261;28;20498;-86
2023/08/28 05:55:50;;;;;;;3.70;2.10;;;16.70;99.90;;;;;;4998531;28;20022;-86
2023/08/28 05:58:16;;;;;;;4.18;1.60;;;16.70;99.90;;;;;;5015273;28;20026;-86
2023/08/28 06:00:42;;;;;;;3.92;1.73;;;16.70;99.90;;;;;;5015682;28;20033;-86
2023/08/28 06:03:07;;;;;;;4.25;1.60;;;16.70;99.90;;;;;;4997565;28;20036;-85
2023/08/28 06:05:33;;;;;;;4.00;1.92;;;16.70;99.90;;;;;;4998502;28;20028;-86
2023/08/28 06:07:59;;;;;;;3.10;1.50;;;16.70;99.90;;;;;;4997902;28;20051;-89
2023/08/28 06:10:24;;;;;;;2.72;1.65;;;16.70;99.90;;;;;;4997772;28;20072;-86
2023/08/28 06:12:50;;;;;;;2.97;1.98;;;16.70;99.90;;;;;;5015552;28;20033;-86
2023/08/28 06:15:19;;;;;;;4.85;1.95;;;16.70;99.90;;;;;;4997984;28;20038;-85
2023/08/28 06:17:45;;;;;;;5.10;1.75;;;16.70;99.90;;;;;;4998040;28;20026;-85
2023/08/28 06:20:11;;;;;;;2.78;1.60;;;16.70;99.90;;;;;;5014705;28;20463;-86
2023/08/28 06:22:38;;;;;;;3.22;1.85;;;16.70;99.90;;;;;;5015152;28;20029;-86
2023/08/28 06:25:04;;;;;;;5.32;2.10;;;16.70;99.90;;;;;;4996920;28;20030;-89
2023/08/28 06:27:30;;;;;;;4.93;1.70;;;16.70;99.90;;;;;;5014803;28;20061;-86
2023/08/28 06:29:56;;;;;;;2.72;1.58;;;16.70;99.90;;;;;;5015010;28;20054;-86
2023/08/28 06:32:21;;;;;;;4.65;1.90;;;16.70;99.90;;;;;;4996767;28;20033;-86
2023/08/28 06:34:47;;;;;;;3.28;1.80;;;16.80;99.90;;;;;;4997574;28;20041;-84
2023/08/28 06:37:12;;;;;;;4.88;1.77;;;16.80;99.90;;;;;;4996620;28;20077;-86
2023/08/28 06:39:38;;;;;;;2.22;1.75;;;16.80;99.90;;;;;;5014388;28;20049;-86
2023/08/28 06:42:04;;;;;;;4.80;1.83;;;16.80;99.90;;;;;;5014669;28;20022;-90
2023/08/28 06:44:29;;;;;;;5.47;1.70;;;16.80;99.90;;;;;;5014501;28;20030;-85
2023/08/28 06:46:55;;;;;;;6.65;1.55;;;16.80;99.90;;;;;;4997255;28;20060;-85
2023/08/28 06:49:20;;;;;;;1.80;1.30;;;16.70;99.90;;;;;;4996987;28;20469;-86
2023/08/28 06:51:47;;;;;;;5.00;1.50;;;16.80;99.90;;;;;;4997374;28;20030;-85
2023/08/28 06:54:12;;;;;;;3.28;1.70;;;16.80;99.90;;;;;;4997224;28;20036;-86
2023/08/28 06:56:38;;;;;;;3.70;1.63;;;16.80;99.90;;;;;;4997667;28;20109;-86
2023/08/28 06:59:03;;;;;;;3.13;1.70;;;16.80;99.90;;;;;;4997089;28;20022;-88
2023/08/28 07:01:29;;;;;;;2.15;1.42;;;16.70;99.90;;;;;;4996927;28;20034;-85
2023/08/28 07:03:55;;;;;;;3.83;1.90;;;16.70;99.90;;;;;;5014611;28;20060;-86
2023/08/28 07:06:20;;;;;;;5.18;1.38;;;16.80;99.90;;;;;;5021713;28;20022;-87
2023/08/28 07:08:46;;;;;;;2.13;1.48;;;16.70;99.90;;;;;;5005750;28;20037;-87
2023/08/28 07:11:11;;;;;;;3.95;1.45;;;16.80;99.90;;;;;;5023754;28;20030;-82
2023/08/28 07:13:37;;;;;;;2.40;1.45;;;16.80;99.90;;;;;;5002690;28;20083;-85
2023/08/28 07:16:03;;;;;;;4.72;1.48;;;16.80;99.90;;;;;;5022264;28;20021;-88
2023/08/28 07:18:29;;;;;;;3.97;1.70;;;16.80;99.90;;;;;;5006732;28;20025;-85
2023/08/28 07:20:55;;;;;;;2.72;1.58;;;16.80;99.90;;;;;;5006610;28;20053;-84
2023/08/28 07:23:22;;;;;;;2.70;1.60;;;16.90;99.90;;;;;;5005661;28;20117;-85
2023/08/28 07:25:48;;;;;;;3.50;1.55;;;16.90;99.90;;;;;;5006470;28;20036;-85
2023/08/28 07:28:13;;;;;;;4.45;1.40;;;16.90;99.90;;;;;;5004057;28;20022;-85
2023/08/28 07:30:40;;;;;;;2.90;1.60;;;17.00;99.90;;;;;;5024353;28;20147;-84
2023/08/28 07:33:06;;;;;;;3.10;1.45;;;17.10;99.90;;;;;;5003154;28;20032;-86
2023/08/28 07:35:34;;;;;;;6.47;1.67;;;17.20;99.90;;;;;;5024608;28;20033;-84
2023/08/28 07:38:05;;;;;;;3.10;1.13;;;17.10;99.90;;;;;;5007971;28;20083;-85
2023/08/28 07:40:31;;;;;;;3.40;1.58;;;17.10;99.90;;;;;;5007050;28;20368;-85
2023/08/28 07:42:57;;;;;;;3.42;1.50;;;17.10;99.90;;;;;;5007838;28;20041;-85
2023/08/28 07:45:23;;;;;;;4.90;1.25;;;17.10;99.90;;;;;;5026837;28;20050;-85
2023/08/28 07:47:48;;;;;;;4.10;1.40;;;17.10;99.90;;;;;;5007731;28;20025;-85
2023/08/28 07:50:14;;;;;;;2.65;1.40;;;17.10;99.90;;;;;;5025707;28;20034;-85
2023/08/28 07:52:39;;;;;;;1.95;1.40;;;17.10;99.90;;;;;;5029526;28;20036;-85
2023/08/28 07:55:05;;;;;;;3.50;1.50;;;17.10;99.90;;;;;;5026765;28;20041;-85
2023/08/28 07:57:33;;;;;;;4.80;1.60;;;17.10;99.90;;;;;;5024569;28;20072;-86
2023/08/28 07:59:58;;;;;;;3.08;1.52;;;17.10;99.90;;;;;;5011745;28;20025;-85
2023/08/28 08:02:24;;;;;;;3.72;1.70;;;17.20;99.90;;;;;;5008708;28;20026;-86
2023/08/28 08:04:50;;;;;;;6.07;1.90;;;17.20;99.90;;;;;;5007489;28;20950;-86
2023/08/28 08:07:16;;;;;;;2.80;1.35;;;17.30;99.90;;;;;;5006320;28;20040;-86
2023/08/28 08:09:41;;;;;;;2.13;1.20;;;17.30;99.90;;;;;;5031816;28;20040;-85
2023/08/28 08:12:07;;;;;;;3.08;1.55;;;17.40;99.90;;;;;;5008756;28;20033;-88
2023/08/28 08:14:33;;;;;;;4.95;2.22;;;17.30;99.90;;;;;;5005763;28;20026;-86
2023/08/28 08:16:58;;;;;;;4.32;1.67;;;17.30;99.90;;;;;;5005369;28;20021;-86
2023/08/28 08:19:24;;;;;;;3.17;1.55;;;17.30;99.90;;;;;;5005390;28;20030;-85
2023/08/28 08:21:49;;;;;;;2.75;1.38;;;17.30;99.90;;;;;;5032130;28;20030;-85
2023/08/28 08:24:15;;;;;;;3.20;1.20;;;17.40;99.90;;;;;;5012520;28;20040;-85
2023/08/28 08:26:41;;;;;;;4.82;1.80;;;17.40;99.90;;;;;;5025778;28;20014;-86
2023/08/28 08:29:06;;;;;;;4.15;1.40;;;17.40;99.90;;;;;;5023766;28;20030;-84
2023/08/28 08:31:32;;;;;;;5.82;1.80;;;17.40;99.90;;;;;;5003317;28;20034;-84
2023/08/28 08:33:57;;;;;;;3.00;1.80;;;17.40;99.90;;;;;;5010644;28;20030;-85
2023/08/28 08:36:23;;;;;;;4.53;1.55;;;17.30;99.90;;;;;;5010762;28;20033;-85
2023/08/28 08:38:48;;;;;;;2.22;1.40;;;17.40;99.90;;;;;;5009047;28;20033;-85
2023/08/28 08:41:14;;;;;;;2.75;1.27;;;17.50;99.90;;;;;;5011196;28;20041;-86
2023/08/28 08:43:40;;;;;;;3.15;1.40;;;17.50;99.90;;;;;;5007201;28;20030;-86
2023/08/28 08:46:07;;;;;;;7.03;1.60;;;17.50;99.90;;;;;;5024905;28;20165;-87
2023/08/28 08:48:36;;;;;;;3.38;1.20;;;17.50;99.90;;;;;;5030312;28;20088;-87
2023/08/28 08:51:04;;;;;;;2.38;1.42;;;17.50;99.90;;;;;;5003407;28;20160;-87
2023/08/28 08:53:52;;;;;;;4.78;1.55;;;17.50;99.90;;;;;;5012235;28;20153;-86
2023/08/28 08:56:21;;;;;;;2.20;1.40;;;17.50;99.90;;;;;;5005960;28;20117;-87
2023/08/28 08:58:47;;;;;;;6.10;1.30;;;17.40;99.90;;;;;;5006845;28;20029;-87
2023/08/28 09:01:13;;;;;;;2.90;1.17;;;17.40;99.90;;;;;;5008695;28;20040;-88
2023/08/28 09:03:40;;;;;;;5.72;1.63;;;17.40;99.90;;;;;;5006953;28;20025;-87
2023/08/28 09:06:06;;;;;;;4.97;1.38;;;17.50;99.90;;;;;;5007053;28;20107;-86
2023/08/28 09:08:34;;;;;;;3.78;1.27;;;17.50;99.90;;;;;;5008183;28;20038;-88
2023/08/28 09:11:00;;;;;;;3.65;1.38;;;17.60;99.90;;;;;;5009233;28;20029;-86
2023/08/28 09:13:26;;;;;;;3.92;1.48;;;17.60;99.90;;;;;;5009684;28;20033;-88
2023/08/28 09:15:52;;;;;;;1.92;1.23;;;17.60;99.90;;;;;;5006012;28;20025;-87
2023/08/28 09:18:18;;;;;;;4.75;1.52;;;17.60;99.90;;;;;;5025313;28;20390;-87
2023/08/28 09:20:43;;;;;;;2.17;1.10;;;17.60;99.90;;;;;;5010748;28;20108;-88
2023/08/28 09:23:10;;;;;;;2.85;1.25;;;17.70;99.90;;;;;;5008284;28;20040;-88
2023/08/28 09:25:38;;;;;;;2.75;1.10;;;17.70;99.90;;;;;;5006868;28;20030;-87
2023/08/28 09:28:05;;;;;;;3.60;1.58;;;17.80;99.90;;;;;;5026936;28;20066;-87
2023/08/28 09:30:36;;;;;;;5.18;1.10;;;17.90;99.90;;;;;;5006044;28;20033;-87
2023/08/28 09:33:04;;;;;;;3.88;1.10;;;17.90;99.90;;;;;;5007691;28;20033;-88
2023/08/28 09:35:39;;;;;;;2.28;1.20;;;18.00;99.90;;;;;;5007312;28;20387;-87
2023/08/28 09:38:06;;;;;;;3.63;1.30;;;18.00;99.90;;;;;;5027283;28;20029;-86
2023/08/28 09:40:33;;;;;;;3.35;1.20;;;18.00;99.90;;;;;;5005660;28;20038;-86
2023/08/28 09:42:59;;;;;;;5.32;1.60;;;18.00;99.90;;;;;;5010086;28;20021;-85
2023/08/28 09:45:32;;;;;;;7.03;2.67;;;18.10;99.90;;;;;;5007655;28;20065;-84
2023/08/28 09:47:58;;;;;;;109.35;10.95;;;18.10;99.90;;;;;;5005206;28;20025;-85
2023/08/28 09:50:30;;;;;;;28.08;4.38;;;18.20;99.90;;;;;;5009300;28;20141;-85
2023/08/28 09:53:15;;;;;;;26.27;3.88;;;18.20;99.90;;;;;;5000584;28;20080;-85
2023/08/28 09:55:50;;;;;;;15.52;2.63;;;18.20;99.90;;;;;;5007996;28;20044;-88
2023/08/28 09:58:16;;;;;;;24.08;4.30;;;18.30;99.90;;;;;;5024324;28;20030;-90
2023/08/28 10:00:42;;;;;;;7.65;1.90;;;18.30;99.90;;;;;;5021758;28;20103;-87
2023/08/28 10:03:10;;;;;;;20.48;3.65;;;18.50;99.90;;;;;;5006081;28;20037;-87
2023/08/28 10:05:37;;;;;;;8.70;1.98;;;18.50;99.90;;;;;;5003407;28;20025;-86
2023/08/28 10:08:08;;;;;;;132.38;12.20;;;18.60;99.90;;;;;;5005663;28;20030;-87
2023/08/28 10:10:40;;;;;;;25.98;3.50;;;18.70;99.90;;;;;;5009526;28;20041;-86
2023/08/28 10:13:12;;;;;;;9.18;2.00;;;18.70;99.90;;;;;;5006164;28;20041;-86
2023/08/28 10:15:51;;;;;;;8.95;1.73;;;18.70;99.90;;;;;;5006246;28;20036;-86
2023/08/28 10:18:31;;;;;;;7.20;1.70;;;18.80;99.90;;;;;;5022995;28;20041;-90
2023/08/28 10:20:58;;;;;;;3.65;1.02;;;18.80;99.90;;;;;;5006238;28;20030;-86
2023/08/28 10:23:25;;;;;;;5.50;1.48;;;18.90;99.90;;;;;;5009661;28;20025;-87
2023/08/28 10:25:53;;;;;;;4.75;1.40;;;19.00;99.90;;;;;;5029444;28;20459;-85
2023/08/28 10:28:19;;;;;;;3.60;1.60;;;19.00;99.90;;;;;;5006595;28;20375;-87
2023/08/28 10:30:47;;;;;;;5.50;1.40;;;19.10;99.90;;;;;;5026965;28;20022;-86
2023/08/28 10:33:14;;;;;;;34.42;4.88;;;19.20;99.90;;;;;;5007745;28;20037;-87
2023/08/28 10:35:42;;;;;;;4.13;1.58;;;19.20;99.90;;;;;;5006396;28;20032;-86
2023/08/28 10:38:10;;;;;;;3.03;1.35;;;19.40;99.90;;;;;;5023216;28;20188;-86
2023/08/28 10:40:36;;;;;;;30.35;3.75;;;19.30;99.90;;;;;;5006354;28;20585;-87
2023/08/28 10:43:03;;;;;;;9.25;2.03;;;19.30;99.90;;;;;;5007635;28;20080;-88
2023/08/28 10:45:29;;;;;;;9.80;2.03;;;19.40;99.90;;;;;;5021562;28;20104;-87
2023/08/28 10:47:55;;;;;;;24.88;3.38;;;19.50;99.90;;;;;;5007983;28;20120;-87
2023/08/28 10:50:21;;;;;;;19.30;3.05;;;19.50;99.90;;;;;;5004506;28;20308;-88
2023/08/28 10:52:46;;;;;;;13.45;2.90;;;19.60;99.90;;;;;;5006229;28;20099;-88
2023/08/28 10:55:17;;;;;;;4.32;1.63;;;19.60;99.90;;;;;;5009240;28;20030;-88
2023/08/28 10:57:50;;;;;;;6.05;1.73;;;19.60;99.90;;;;;;5011211;28;20079;-87
2023/08/28 11:00:20;;;;;;;2.60;1.48;;;19.60;99.90;;;;;;5004439;28;20541;-86
2023/08/28 11:03:09;;;;;;;7.60;1.95;;;19.60;99.90;;;;;;4998874;28;20056;-85
2023/08/28 11:05:38;;;;;;;4.32;1.67;;;19.60;99.90;;;;;;5002609;28;20410;-85
2023/08/28 11:08:04;;;;;;;3.63;1.50;;;19.60;99.90;;;;;;5010767;28;20026;-87
2023/08/28 11:10:31;;;;;;;4.88;1.88;;;19.70;99.90;;;;;;5001169;28;20124;-85
2023/08/28 11:13:08;;;;;;;3.63;1.75;;;19.70;99.90;;;;;;5007558;28;20041;-87
2023/08/28 11:15:41;;;;;;;2.65;1.52;;;19.70;99.90;;;;;;5002764;28;20026;-85
2023/08/28 11:18:23;;;;;;;3.45;1.80;;;19.70;99.90;;;;;;5006260;28;20029;-85
2023/08/28 11:20:53;;;;;;;2.40;1.65;;;19.60;99.90;;;;;;5011225;28;20379;-84
2023/08/28 11:23:35;;;;;;;3.00;1.38;;;19.70;99.90;;;;;;5004612;28;20026;-87
2023/08/28 11:26:27;;;;;;;3.10;1.30;;;19.80;99.90;;;;;;5002699;28;20036;-85
2023/08/28 11:28:52;;;;;;;2.20;1.27;;;19.90;99.90;;;;;;5005023;28;20031;-86
2023/08/28 11:31:21;;;;;;;3.03;1.45;;;20.00;99.90;;;;;;5003407;28;20038;-88
2023/08/28 11:33:57;;;;;;;3.72;1.30;;;19.90;99.90;;;;;;5023872;28;20037;-86
2023/08/28 11:36:23;;;;;;;3.28;1.20;;;20.10;99.90;;;;;;5011748;28;20025;-85
2023/08/28 11:38:49;;;;;;;1.27;1.02;;;20.10;99.90;;;;;;5027957;28;20529;-85
2023/08/28 11:41:15;;;;;;;2.17;1.17;;;20.10;99.90;;;;;;5004435;28;20017;-85
2023/08/28 11:43:42;;;;;;;2.35;0.98;;;20.20;99.90;;;;;;5025466;28;20048;-86
2023/08/28 11:46:12;;;;;;;2.05;0.98;;;20.20;99.90;;;;;;5023678;28;20068;-86
2023/08/28 11:48:40;;;;;;;2.45;1.10;;;20.20;99.90;;;;;;5025470;28;20480;-86
2023/08/28 11:51:08;;;;;;;2.17;1.17;;;20.20;99.90;;;;;;5009114;28;20018;-86
2023/08/28 11:53:37;;;;;;;1.90;0.85;;;20.20;99.90;;;;;;5007329;28;20108;-85
2023/08/28 11:56:05;;;;;;;1.45;1.10;;;20.30;99.90;;;;;;5006746;28;20052;-86
2023/08/28 11:58:32;;;;;;;3.80;1.10;;;20.30;99.90;;;;;;5006491;28;20088;-86
2023/08/28 12:01:00;;;;;;;4.05;1.27;;;20.40;99.90;;;;;;5022795;28;20456;-86
2023/08/28 12:03:27;;;;;;;3.80;1.42;;;20.40;99.90;;;;;;5022711;28;20049;-85
2023/08/28 12:06:07;;;;;;;3.10;1.20;;;20.40;99.90;;;;;;5004909;28;20026;-85
2023/08/28 12:08:35;;;;;;;1.50;1.08;;;20.30;99.90;;;;;;5005273;28;20072;-86
2023/08/28 12:11:01;;;;;;;2.63;1.25;;;20.30;99.90;;;;;;5005658;28;20025;-85
2023/08/28 12:13:27;;;;;;;2.30;1.20;;;20.20;99.90;;;;;;5003104;28;20026;-89
2023/08/28 12:16:15;;;;;;;2.60;1.65;;;20.20;99.90;;;;;;5004871;28;20130;-86
2023/08/28 12:18:45;;;;;;;3.63;1.08;;;20.10;99.90;;;;;;5004231;28;20556;-86
2023/08/28 12:21:11;;;;;;;2.00;1.00;;;20.10;99.90;;;;;;5004789;28;20040;-86
2023/08/28 12:23:56;;;;;;;1.73;1.00;;;20.10;99.90;;;;;;5005251;28;20466;-86
2023/08/28 12:26:24;;;;;;;2.67;1.23;;;20.20;99.90;;;;;;5025308;28;20098;-87
2023/08/28 12:28:50;;;;;;;2.53;1.38;;;20.20;99.90;;;;;;5010348;28;20056;-86
2023/08/28 12:31:27;;;;;;;4.53;1.20;;;20.20;99.90;;;;;;5008889;28;20121;-86
2023/08/28 12:33:54;;;;;;;1.38;1.20;;;20.20;99.90;;;;;;5007508;28;20022;-86
2023/08/28 12:36:26;;;;;;;2.92;1.05;;;20.20;99.90;;;;;;5008766;28;20083;-86
2023/08/28 12:38:51;;;;;;;2.42;1.10;;;20.20;99.90;;;;;;5026645;28;20570;-88
2023/08/28 12:41:17;;;;;;;2.47;1.20;;;20.10;99.90;;;;;;5008861;28;20144;-86
2023/08/28 12:43:46;;;;;;;1.67;1.35;;;20.00;99.90;;;;;;5008425;28;20026;-86
2023/08/28 12:46:13;;;;;;;2.33;1.00;;;20.00;99.90;;;;;;5007956;28;20064;-87